Hauptseite
METAR-TAF:

METAR-TAF

Flughäfen :

RAF Benson

Benson, England

Breite: 51-37N, Länge: 001-05W, Höhe: 63 m

Beobachtung

Neuester Wetterbericht von vor 48 Minuten, um 03:50 UTC
Wind 1 kt aus Süd/Südost
Temperatur 0°C
Luftfeuchtigkeit 100%
Luftdruck 1008 hPa
Sichtweite 10 km oder mehr

METAR: EGUB 170350Z AUTO 15001KT 9999 // SCT025/// BKN170/// 00/00 Q1008

Zeit: 04:38 (04:38 UTC)

Prognose

Neuester Wetterbericht von vor 14 Stunden und 59 Minuten, um 13:39 UTC
Gültige Prognose vom 16 um 15 UTC bis 16 um 18 UTC
Wind 2 kt aus unterschiedlichen Richtungen
Sichtweite 10 km oder mehr
Durchbrochene Bewölkung in der Höhe von 3500 ft

TAF: EGUB 161339Z 1615/1618 VRB02KT 9999 BKN035

Wetterbeobachtungen und Prognosen von mehr als 4000 Flughäfen (METAR und TAF Bericht).

Die verfügbaren Stationen werden durch gelbe und rote Markierungen auf der Karte dargestellt.

Führen Sie die Maus auf sie, um den Namen der Station zu sehen.

Darauf klicken, um die Beobachtung von Wetterbeobachtungen und Prognosen zu sehen.

Um die Karte zu ändern : klicken Sie auf den grünen Tasten mit einem schwarzen Kreuz Zum Vergrößern, auf den grünen Button mit einem Gedankenstrich zu verkleinern, oder auf die grünen Pfeile für benachbarte Karten.


METAR-TAF: